sensor_id;sensor_type;location;lat;lon;timestamp;temperature;humidity
23156;DHT22;11746;50.876;4.246;2023-07-20T00:01:26;17.50;99.90
23156;DHT22;11746;50.876;4.246;2023-07-20T00:03:52;17.50;99.90
23156;DHT22;11746;50.876;4.246;2023-07-20T00:06:22;17.40;99.90
23156;DHT22;11746;50.876;4.246;2023-07-20T00:08:49;17.40;99.90
23156;DHT22;11746;50.876;4.246;2023-07-20T00:11:17;17.30;99.90
23156;DHT22;11746;50.876;4.246;2023-07-20T00:13:43;17.30;99.90
23156;DHT22;11746;50.876;4.246;2023-07-20T00:16:09;17.30;99.90
23156;DHT22;11746;50.876;4.246;2023-07-20T00:18:35;17.30;99.90
23156;DHT22;11746;50.876;4.246;2023-07-20T00:21:01;17.30;99.90
23156;DHT22;11746;50.876;4.246;2023-07-20T00:23:28;17.40;99.90
23156;DHT22;11746;50.876;4.246;2023-07-20T00:25:54;17.20;99.90
23156;DHT22;11746;50.876;4.246;2023-07-20T00:28:20;17.30;99.90
23156;DHT22;11746;50.876;4.246;2023-07-20T00:30:46;17.40;99.90
23156;DHT22;11746;50.876;4.246;2023-07-20T00:33:12;17.40;99.90
23156;DHT22;11746;50.876;4.246;2023-07-20T00:35:39;17.40;99.90
23156;DHT22;11746;50.876;4.246;2023-07-20T00:38:05;17.30;99.90
23156;DHT22;11746;50.876;4.246;2023-07-20T00:40:40;17.20;99.90
23156;DHT22;11746;50.876;4.246;2023-07-20T00:43:07;17.30;99.90
23156;DHT22;11746;50.876;4.246;2023-07-20T00:45:34;17.20;99.90
23156;DHT22;11746;50.876;4.246;2023-07-20T00:48:04;17.20;99.90
23156;DHT22;11746;50.876;4.246;2023-07-20T00:50:30;17.20;99.90
23156;DHT22;11746;50.876;4.246;2023-07-20T00:52:56;17.10;99.90
23156;DHT22;11746;50.876;4.246;2023-07-20T00:55:24;17.20;99.90
23156;DHT22;11746;50.876;4.246;2023-07-20T00:57:51;17.30;99.90
23156;DHT22;11746;50.876;4.246;2023-07-20T01:00:17;17.10;99.90
23156;DHT22;11746;50.876;4.246;2023-07-20T01:02:43;17.00;99.90
23156;DHT22;11746;50.876;4.246;2023-07-20T01:05:09;16.80;99.90
23156;DHT22;11746;50.876;4.246;2023-07-20T01:07:52;16.90;99.90
23156;DHT22;11746;50.876;4.246;2023-07-20T01:12:55;17.10;99.90
23156;DHT22;11746;50.876;4.246;2023-07-20T01:15:21;17.00;99.90
23156;DHT22;11746;50.876;4.246;2023-07-20T01:17:47;17.10;99.90
23156;DHT22;11746;50.876;4.246;2023-07-20T01:20:15;17.30;99.90
23156;DHT22;11746;50.876;4.246;2023-07-20T01:28:43;17.10;99.90
23156;DHT22;11746;50.876;4.246;2023-07-20T01:31:19;17.20;99.90
23156;DHT22;11746;50.876;4.246;2023-07-20T01:33:47;17.20;99.90
23156;DHT22;11746;50.876;4.246;2023-07-20T01:36:19;17.20;99.90
23156;DHT22;11746;50.876;4.246;2023-07-20T01:38:45;17.40;99.90
23156;DHT22;11746;50.876;4.246;2023-07-20T01:41:12;17.20;99.90
23156;DHT22;11746;50.876;4.246;2023-07-20T01:43:38;17.10;99.90
23156;DHT22;11746;50.876;4.246;2023-07-20T01:46:04;16.80;99.90
23156;DHT22;11746;50.876;4.246;2023-07-20T01:48:30;16.90;99.90
23156;DHT22;11746;50.876;4.246;2023-07-20T01:50:56;17.00;99.90
23156;DHT22;11746;50.876;4.246;2023-07-20T01:53:22;17.00;99.90
23156;DHT22;11746;50.876;4.246;2023-07-20T01:55:48;17.10;99.90
23156;DHT22;11746;50.876;4.246;2023-07-20T01:58:14;17.20;99.90
23156;DHT22;11746;50.876;4.246;2023-07-20T02:00:40;17.10;99.90
23156;DHT22;11746;50.876;4.246;2023-07-20T02:03:06;17.00;99.90
23156;DHT22;11746;50.876;4.246;2023-07-20T02:05:32;16.90;99.90
23156;DHT22;11746;50.876;4.246;2023-07-20T02:07:58;16.90;99.90
23156;DHT22;11746;50.876;4.246;2023-07-20T02:10:23;16.80;99.90
23156;DHT22;11746;50.876;4.246;2023-07-20T02:12:49;16.90;99.90
23156;DHT22;11746;50.876;4.246;2023-07-20T02:15:16;16.80;99.90
23156;DHT22;11746;50.876;4.246;2023-07-20T02:17:44;16.70;99.90
23156;DHT22;11746;50.876;4.246;2023-07-20T02:20:11;16.70;99.90
23156;DHT22;11746;50.876;4.246;2023-07-20T02:22:38;16.70;99.90
23156;DHT22;11746;50.876;4.246;2023-07-20T02:25:05;16.60;99.90
23156;DHT22;11746;50.876;4.246;2023-07-20T02:27:31;16.70;99.90
23156;DHT22;11746;50.876;4.246;2023-07-20T02:29:56;16.90;99.90
23156;DHT22;11746;50.876;4.246;2023-07-20T02:32:22;16.80;99.90
23156;DHT22;11746;50.876;4.246;2023-07-20T02:34:48;16.70;99.90
23156;DHT22;11746;50.876;4.246;2023-07-20T02:37:14;16.60;99.90
23156;DHT22;11746;50.876;4.246;2023-07-20T02:39:40;16.50;99.90
23156;DHT22;11746;50.876;4.246;2023-07-20T02:42:06;16.50;99.90
23156;DHT22;11746;50.876;4.246;2023-07-20T02:44:32;16.40;99.90
23156;DHT22;11746;50.876;4.246;2023-07-20T02:46:57;16.40;99.90
23156;DHT22;11746;50.876;4.246;2023-07-20T02:49:23;16.50;99.90
23156;DHT22;11746;50.876;4.246;2023-07-20T02:51:49;16.40;99.90
23156;DHT22;11746;50.876;4.246;2023-07-20T02:54:15;16.30;99.90
23156;DHT22;11746;50.876;4.246;2023-07-20T02:56:41;16.40;99.90
23156;DHT22;11746;50.876;4.246;2023-07-20T02:59:07;16.30;99.90
23156;DHT22;11746;50.876;4.246;2023-07-20T03:01:33;16.30;99.90
23156;DHT22;11746;50.876;4.246;2023-07-20T03:03:59;16.30;99.90
23156;DHT22;11746;50.876;4.246;2023-07-20T03:06:25;16.20;99.90
23156;DHT22;11746;50.876;4.246;2023-07-20T03:08:51;16.10;99.90
23156;DHT22;11746;50.876;4.246;2023-07-20T03:11:20;16.00;99.90
23156;DHT22;11746;50.876;4.246;2023-07-20T03:13:46;16.00;99.90
23156;DHT22;11746;50.876;4.246;2023-07-20T03:16:18;15.90;99.90
23156;DHT22;11746;50.876;4.246;2023-07-20T03:18:45;15.80;99.90
23156;DHT22;11746;50.876;4.246;2023-07-20T03:21:11;15.80;99.90
23156;DHT22;11746;50.876;4.246;2023-07-20T03:23:38;16.00;99.90
23156;DHT22;11746;50.876;4.246;2023-07-20T03:26:05;15.90;99.90
23156;DHT22;11746;50.876;4.246;2023-07-20T03:28:31;16.00;99.90
23156;DHT22;11746;50.876;4.246;2023-07-20T03:30:57;16.10;99.90
23156;DHT22;11746;50.876;4.246;2023-07-20T03:33:27;16.10;99.90
23156;DHT22;11746;50.876;4.246;2023-07-20T03:35:54;16.20;99.90
23156;DHT22;11746;50.876;4.246;2023-07-20T03:38:21;16.30;99.90
23156;DHT22;11746;50.876;4.246;2023-07-20T03:40:57;16.40;99.90
23156;DHT22;11746;50.876;4.246;2023-07-20T03:43:24;16.50;99.90
23156;DHT22;11746;50.876;4.246;2023-07-20T03:45:51;16.50;99.90
23156;DHT22;11746;50.876;4.246;2023-07-20T03:48:21;16.50;99.90
23156;DHT22;11746;50.876;4.246;2023-07-20T03:50:52;16.40;99.90
23156;DHT22;11746;50.876;4.246;2023-07-20T03:53:19;16.50;99.90
23156;DHT22;11746;50.876;4.246;2023-07-20T03:55:46;16.50;99.90
23156;DHT22;11746;50.876;4.246;2023-07-20T03:58:12;16.50;99.90
23156;DHT22;11746;50.876;4.246;2023-07-20T04:00:39;16.60;99.90
23156;DHT22;11746;50.876;4.246;2023-07-20T04:03:06;16.50;99.90
23156;DHT22;11746;50.876;4.246;2023-07-20T04:05:32;16.60;99.90
23156;DHT22;11746;50.876;4.246;2023-07-20T04:07:58;16.60;99.90
23156;DHT22;11746;50.876;4.246;2023-07-20T04:10:24;16.40;99.90
23156;DHT22;11746;50.876;4.246;2023-07-20T04:12:50;16.40;99.90
23156;DHT22;11746;50.876;4.246;2023-07-20T04:15:16;16.40;99.90
23156;DHT22;11746;50.876;4.246;2023-07-20T04:17:42;16.50;99.90
23156;DHT22;11746;50.876;4.246;2023-07-20T04:20:08;16.60;99.90
23156;DHT22;11746;50.876;4.246;2023-07-20T04:22:35;16.70;99.90
23156;DHT22;11746;50.876;4.246;2023-07-20T04:25:01;16.60;99.90
23156;DHT22;11746;50.876;4.246;2023-07-20T04:27:27;16.60;99.90
23156;DHT22;11746;50.876;4.246;2023-07-20T04:29:53;16.70;99.90
23156;DHT22;11746;50.876;4.246;2023-07-20T04:32:19;16.50;99.90
23156;DHT22;11746;50.876;4.246;2023-07-20T04:34:44;16.60;99.90
23156;DHT22;11746;50.876;4.246;2023-07-20T04:37:10;16.50;99.90
23156;DHT22;11746;50.876;4.246;2023-07-20T04:39:36;16.50;99.90
23156;DHT22;11746;50.876;4.246;2023-07-20T04:42:02;16.60;99.90
23156;DHT22;11746;50.876;4.246;2023-07-20T04:44:28;16.50;99.90
23156;DHT22;11746;50.876;4.246;2023-07-20T04:46:54;16.60;99.90
23156;DHT22;11746;50.876;4.246;2023-07-20T04:49:20;16.70;99.90
23156;DHT22;11746;50.876;4.246;2023-07-20T04:51:46;16.70;99.90
23156;DHT22;11746;50.876;4.246;2023-07-20T04:54:12;16.70;99.90
23156;DHT22;11746;50.876;4.246;2023-07-20T04:56:39;16.60;99.90
23156;DHT22;11746;50.876;4.246;2023-07-20T04:59:05;16.70;99.90
23156;DHT22;11746;50.876;4.246;2023-07-20T05:01:30;16.60;99.90
23156;DHT22;11746;50.876;4.246;2023-07-20T05:03:56;16.60;99.90
23156;DHT22;11746;50.876;4.246;2023-07-20T05:06:22;16.50;99.90
23156;DHT22;11746;50.876;4.246;2023-07-20T05:08:48;16.50;99.90
23156;DHT22;11746;50.876;4.246;2023-07-20T05:11:14;16.40;99.90
23156;DHT22;11746;50.876;4.246;2023-07-20T05:13:40;16.60;99.90
23156;DHT22;11746;50.876;4.246;2023-07-20T05:16:06;16.60;99.90
23156;DHT22;11746;50.876;4.246;2023-07-20T05:18:33;16.70;99.90
23156;DHT22;11746;50.876;4.246;2023-07-20T05:20:58;16.70;99.90
23156;DHT22;11746;50.876;4.246;2023-07-20T05:23:24;16.80;99.90
23156;DHT22;11746;50.876;4.246;2023-07-20T05:25:55;16.70;99.90
23156;DHT22;11746;50.876;4.246;2023-07-20T05:28:22;16.70;99.90
23156;DHT22;11746;50.876;4.246;2023-07-20T05:30:48;16.80;99.90
23156;DHT22;11746;50.876;4.246;2023-07-20T05:33:14;16.80;99.90
23156;DHT22;11746;50.876;4.246;2023-07-20T05:35:40;16.80;99.90
23156;DHT22;11746;50.876;4.246;2023-07-20T05:38:06;16.80;99.90
23156;DHT22;11746;50.876;4.246;2023-07-20T05:40:32;16.80;99.90
23156;DHT22;11746;50.876;4.246;2023-07-20T05:42:58;16.70;99.90
23156;DHT22;11746;50.876;4.246;2023-07-20T05:45:26;16.90;99.90
23156;DHT22;11746;50.876;4.246;2023-07-20T05:47:52;16.90;99.90
23156;DHT22;11746;50.876;4.246;2023-07-20T05:50:18;17.00;99.90
23156;DHT22;11746;50.876;4.246;2023-07-20T05:52:43;17.10;99.90
23156;DHT22;11746;50.876;4.246;2023-07-20T05:55:10;17.20;99.90
23156;DHT22;11746;50.876;4.246;2023-07-20T05:57:36;17.20;99.90
23156;DHT22;11746;50.876;4.246;2023-07-20T06:00:06;17.30;99.90
23156;DHT22;11746;50.876;4.246;2023-07-20T06:02:32;17.30;99.90
23156;DHT22;11746;50.876;4.246;2023-07-20T06:04:59;17.30;99.90
23156;DHT22;11746;50.876;4.246;2023-07-20T06:07:24;17.30;99.90
23156;DHT22;11746;50.876;4.246;2023-07-20T06:09:50;17.30;99.90
23156;DHT22;11746;50.876;4.246;2023-07-20T06:12:16;17.40;99.90
23156;DHT22;11746;50.876;4.246;2023-07-20T06:14:42;17.30;99.90
23156;DHT22;11746;50.876;4.246;2023-07-20T06:17:08;17.30;99.90
23156;DHT22;11746;50.876;4.246;2023-07-20T06:19:34;17.40;99.90
23156;DHT22;11746;50.876;4.246;2023-07-20T06:22:00;17.50;99.90
23156;DHT22;11746;50.876;4.246;2023-07-20T06:24:26;17.60;99.90
23156;DHT22;11746;50.876;4.246;2023-07-20T06:26:52;17.70;99.90
23156;DHT22;11746;50.876;4.246;2023-07-20T06:29:18;17.60;99.90
23156;DHT22;11746;50.876;4.246;2023-07-20T06:31:44;17.70;99.90
23156;DHT22;11746;50.876;4.246;2023-07-20T06:34:10;17.60;99.90
23156;DHT22;11746;50.876;4.246;2023-07-20T06:36:36;17.70;99.90
23156;DHT22;11746;50.876;4.246;2023-07-20T06:39:02;17.70;99.90
23156;DHT22;11746;50.876;4.246;2023-07-20T06:41:28;17.70;99.90
23156;DHT22;11746;50.876;4.246;2023-07-20T06:43:54;17.70;99.90
23156;DHT22;11746;50.876;4.246;2023-07-20T06:46:25;17.80;99.90
23156;DHT22;11746;50.876;4.246;2023-07-20T06:48:51;18.10;99.90
23156;DHT22;11746;50.876;4.246;2023-07-20T06:51:17;18.10;99.90
23156;DHT22;11746;50.876;4.246;2023-07-20T06:53:43;18.40;99.90
23156;DHT22;11746;50.876;4.246;2023-07-20T06:56:09;18.50;99.90
23156;DHT22;11746;50.876;4.246;2023-07-20T06:58:36;18.60;99.90
23156;DHT22;11746;50.876;4.246;2023-07-20T07:01:08;18.70;99.90
23156;DHT22;11746;50.876;4.246;2023-07-20T07:03:34;18.90;99.90
23156;DHT22;11746;50.876;4.246;2023-07-20T07:06:00;19.00;99.90
23156;DHT22;11746;50.876;4.246;2023-07-20T07:08:26;18.80;99.90
23156;DHT22;11746;50.876;4.246;2023-07-20T07:10:52;18.90;99.90
23156;DHT22;11746;50.876;4.246;2023-07-20T07:13:19;18.80;99.90
23156;DHT22;11746;50.876;4.246;2023-07-20T07:15:45;18.80;99.90
23156;DHT22;11746;50.876;4.246;2023-07-20T07:18:11;18.90;99.90
23156;DHT22;11746;50.876;4.246;2023-07-20T07:20:37;18.90;99.90
23156;DHT22;11746;50.876;4.246;2023-07-20T07:23:03;18.90;99.90
23156;DHT22;11746;50.876;4.246;2023-07-20T07:25:29;18.90;99.90
23156;DHT22;11746;50.876;4.246;2023-07-20T07:27:55;19.00;99.90
23156;DHT22;11746;50.876;4.246;2023-07-20T07:30:21;19.10;99.90
23156;DHT22;11746;50.876;4.246;2023-07-20T07:32:48;18.90;99.90
23156;DHT22;11746;50.876;4.246;2023-07-20T07:35:14;18.70;99.90
23156;DHT22;11746;50.876;4.246;2023-07-20T07:37:40;18.60;99.90
23156;DHT22;11746;50.876;4.246;2023-07-20T07:40:06;18.80;99.90
23156;DHT22;11746;50.876;4.246;2023-07-20T07:42:33;18.70;99.90
23156;DHT22;11746;50.876;4.246;2023-07-20T07:44:59;18.60;99.90
23156;DHT22;11746;50.876;4.246;2023-07-20T07:47:25;18.70;99.90
23156;DHT22;11746;50.876;4.246;2023-07-20T07:49:51;18.90;99.90
23156;DHT22;11746;50.876;4.246;2023-07-20T07:52:17;18.90;99.90
23156;DHT22;11746;50.876;4.246;2023-07-20T07:54:43;19.10;99.90
23156;DHT22;11746;50.876;4.246;2023-07-20T07:57:09;19.10;99.90
23156;DHT22;11746;50.876;4.246;2023-07-20T07:59:34;19.30;99.90
23156;DHT22;11746;50.876;4.246;2023-07-20T08:02:04;19.40;99.90
23156;DHT22;11746;50.876;4.246;2023-07-20T08:04:30;19.50;99.90
23156;DHT22;11746;50.876;4.246;2023-07-20T08:06:56;19.60;99.90
23156;DHT22;11746;50.876;4.246;2023-07-20T08:09:23;19.40;99.90
23156;DHT22;11746;50.876;4.246;2023-07-20T08:11:49;19.50;99.90
23156;DHT22;11746;50.876;4.246;2023-07-20T08:14:15;19.70;99.90
23156;DHT22;11746;50.876;4.246;2023-07-20T08:16:41;19.90;99.90
23156;DHT22;11746;50.876;4.246;2023-07-20T08:19:08;20.30;99.90
23156;DHT22;11746;50.876;4.246;2023-07-20T08:21:34;20.40;99.90
23156;DHT22;11746;50.876;4.246;2023-07-20T08:24:00;19.90;99.90
23156;DHT22;11746;50.876;4.246;2023-07-20T08:26:26;19.90;99.90
23156;DHT22;11746;50.876;4.246;2023-07-20T08:28:52;20.00;99.90
23156;DHT22;11746;50.876;4.246;2023-07-20T08:31:18;20.10;99.90
23156;DHT22;11746;50.876;4.246;2023-07-20T08:33:47;19.90;99.90
23156;DHT22;11746;50.876;4.246;2023-07-20T08:36:12;19.90;99.90
23156;DHT22;11746;50.876;4.246;2023-07-20T08:38:38;19.80;99.90
23156;DHT22;11746;50.876;4.246;2023-07-20T08:41:04;20.00;99.90
23156;DHT22;11746;50.876;4.246;2023-07-20T08:43:31;20.00;99.90
23156;DHT22;11746;50.876;4.246;2023-07-20T08:45:57;20.00;99.90
23156;DHT22;11746;50.876;4.246;2023-07-20T08:48:24;20.40;99.90
23156;DHT22;11746;50.876;4.246;2023-07-20T08:50:51;20.40;99.90
23156;DHT22;11746;50.876;4.246;2023-07-20T08:53:20;20.60;99.90
23156;DHT22;11746;50.876;4.246;2023-07-20T08:55:50;20.40;99.90
23156;DHT22;11746;50.876;4.246;2023-07-20T08:58:17;20.50;99.90
23156;DHT22;11746;50.876;4.246;2023-07-20T09:00:43;20.80;99.90
23156;DHT22;11746;50.876;4.246;2023-07-20T09:03:11;20.90;99.90
23156;DHT22;11746;50.876;4.246;2023-07-20T09:05:37;20.90;99.90
23156;DHT22;11746;50.876;4.246;2023-07-20T09:08:05;20.70;99.90
23156;DHT22;11746;50.876;4.246;2023-07-20T09:10:31;20.70;99.90
23156;DHT22;11746;50.876;4.246;2023-07-20T09:12:57;21.00;99.90
23156;DHT22;11746;50.876;4.246;2023-07-20T09:15:23;21.10;99.90
23156;DHT22;11746;50.876;4.246;2023-07-20T09:17:50;21.10;99.90
23156;DHT22;11746;50.876;4.246;2023-07-20T09:20:17;20.90;99.90
23156;DHT22;11746;50.876;4.246;2023-07-20T09:22:44;20.60;99.90
23156;DHT22;11746;50.876;4.246;2023-07-20T09:25:17;20.50;99.90
23156;DHT22;11746;50.876;4.246;2023-07-20T09:27:47;20.40;99.90
23156;DHT22;11746;50.876;4.246;2023-07-20T09:30:15;20.60;99.90
23156;DHT22;11746;50.876;4.246;2023-07-20T09:32:43;20.60;99.90
23156;DHT22;11746;50.876;4.246;2023-07-20T09:35:17;20.60;99.90
23156;DHT22;11746;50.876;4.246;2023-07-20T09:37:47;20.80;99.90
23156;DHT22;11746;50.876;4.246;2023-07-20T09:40:17;20.80;99.90
23156;DHT22;11746;50.876;4.246;2023-07-20T09:42:43;21.00;99.90
23156;DHT22;11746;50.876;4.246;2023-07-20T09:45:10;21.10;99.90
23156;DHT22;11746;50.876;4.246;2023-07-20T09:47:37;21.00;99.90
23156;DHT22;11746;50.876;4.246;2023-07-20T09:50:08;20.90;99.90
23156;DHT22;11746;50.876;4.246;2023-07-20T09:52:40;21.10;99.90
23156;DHT22;11746;50.876;4.246;2023-07-20T09:55:08;21.00;99.90
23156;DHT22;11746;50.876;4.246;2023-07-20T09:57:35;21.00;99.90
23156;DHT22;11746;50.876;4.246;2023-07-20T10:00:03;21.20;99.90
23156;DHT22;11746;50.876;4.246;2023-07-20T10:02:38;21.50;99.90
23156;DHT22;11746;50.876;4.246;2023-07-20T10:05:08;21.50;99.90
23156;DHT22;11746;50.876;4.246;2023-07-20T10:07:50;21.50;99.90
23156;DHT22;11746;50.876;4.246;2023-07-20T10:10:17;21.50;99.90
23156;DHT22;11746;50.876;4.246;2023-07-20T10:12:44;21.60;99.90
23156;DHT22;11746;50.876;4.246;2023-07-20T10:15:19;21.90;99.90
23156;DHT22;11746;50.876;4.246;2023-07-20T10:18:22;22.00;99.90
23156;DHT22;11746;50.876;4.246;2023-07-20T10:20:51;22.00;99.90
23156;DHT22;11746;50.876;4.246;2023-07-20T10:23:20;22.00;99.90
23156;DHT22;11746;50.876;4.246;2023-07-20T10:25:47;21.70;99.90
23156;DHT22;11746;50.876;4.246;2023-07-20T10:28:13;21.50;99.90
23156;DHT22;11746;50.876;4.246;2023-07-20T10:30:40;21.70;99.90
23156;DHT22;11746;50.876;4.246;2023-07-20T10:33:07;22.20;99.90
23156;DHT22;11746;50.876;4.246;2023-07-20T10:35:55;22.60;99.90
23156;DHT22;11746;50.876;4.246;2023-07-20T10:41:21;23.30;99.90
23156;DHT22;11746;50.876;4.246;2023-07-20T10:43:49;22.90;99.90
23156;DHT22;11746;50.876;4.246;2023-07-20T10:46:15;22.40;99.90
23156;DHT22;11746;50.876;4.246;2023-07-20T10:49:03;22.60;99.90
23156;DHT22;11746;50.876;4.246;2023-07-20T10:51:46;23.00;99.90
23156;DHT22;11746;50.876;4.246;2023-07-20T10:56:43;23.00;99.90
23156;DHT22;11746;50.876;4.246;2023-07-20T10:59:20;23.00;99.90
23156;DHT22;11746;50.876;4.246;2023-07-20T11:01:52;23.20;99.90
23156;DHT22;11746;50.876;4.246;2023-07-20T11:04:37;23.40;99.90
23156;DHT22;11746;50.876;4.246;2023-07-20T11:07:03;23.40;99.90
23156;DHT22;11746;50.876;4.246;2023-07-20T11:09:34;23.20;99.90
23156;DHT22;11746;50.876;4.246;2023-07-20T11:12:16;23.10;99.90
23156;DHT22;11746;50.876;4.246;2023-07-20T11:14:56;22.50;99.90
23156;DHT22;11746;50.876;4.246;2023-07-20T11:17:32;22.10;99.90
23156;DHT22;11746;50.876;4.246;2023-07-20T11:19:59;22.00;99.90
23156;DHT22;11746;50.876;4.246;2023-07-20T11:22:31;22.10;99.90
23156;DHT22;11746;50.876;4.246;2023-07-20T11:24:57;22.10;99.90
23156;DHT22;11746;50.876;4.246;2023-07-20T11:27:24;22.00;99.90
23156;DHT22;11746;50.876;4.246;2023-07-20T11:29:50;21.90;99.90
23156;DHT22;11746;50.876;4.246;2023-07-20T11:32:25;21.90;99.90
23156;DHT22;11746;50.876;4.246;2023-07-20T11:34:51;21.80;99.90
23156;DHT22;11746;50.876;4.246;2023-07-20T11:37:17;22.00;99.90
23156;DHT22;11746;50.876;4.246;2023-07-20T11:39:44;22.30;99.90
23156;DHT22;11746;50.876;4.246;2023-07-20T11:42:10;22.00;99.90
23156;DHT22;11746;50.876;4.246;2023-07-20T11:44:37;22.20;99.90
23156;DHT22;11746;50.876;4.246;2023-07-20T11:47:11;22.50;99.90
23156;DHT22;11746;50.876;4.246;2023-07-20T11:49:39;22.60;99.90
23156;DHT22;11746;50.876;4.246;2023-07-20T11:52:15;22.50;99.90
23156;DHT22;11746;50.876;4.246;2023-07-20T11:54:42;22.60;99.90
23156;DHT22;11746;50.876;4.246;2023-07-20T11:57:21;22.70;99.90
23156;DHT22;11746;50.876;4.246;2023-07-20T11:59:56;22.60;99.90
23156;DHT22;11746;50.876;4.246;2023-07-20T12:02:26;22.50;99.90
23156;DHT22;11746;50.876;4.246;2023-07-20T12:04:52;22.30;99.90
23156;DHT22;11746;50.876;4.246;2023-07-20T12:07:19;22.30;99.90
23156;DHT22;11746;50.876;4.246;2023-07-20T12:10:03;22.40;99.90
23156;DHT22;11746;50.876;4.246;2023-07-20T12:12:34;22.50;99.90
23156;DHT22;11746;50.876;4.246;2023-07-20T12:17:52;22.80;99.90
23156;DHT22;11746;50.876;4.246;2023-07-20T12:20:26;22.70;99.90
23156;DHT22;11746;50.876;4.246;2023-07-20T12:22:53;22.70;99.90
23156;DHT22;11746;50.876;4.246;2023-07-20T12:25:21;22.50;99.90
23156;DHT22;11746;50.876;4.246;2023-07-20T12:27:48;22.50;99.90
23156;DHT22;11746;50.876;4.246;2023-07-20T12:30:14;22.40;99.90
23156;DHT22;11746;50.876;4.246;2023-07-20T12:32:40;22.30;99.90
23156;DHT22;11746;50.876;4.246;2023-07-20T12:35:06;22.10;99.90
23156;DHT22;11746;50.876;4.246;2023-07-20T12:37:32;22.00;99.90
23156;DHT22;11746;50.876;4.246;2023-07-20T12:39:58;21.90;99.90
23156;DHT22;11746;50.876;4.246;2023-07-20T12:42:24;21.90;99.90
23156;DHT22;11746;50.876;4.246;2023-07-20T12:44:50;21.80;99.90
23156;DHT22;11746;50.876;4.246;2023-07-20T12:47:17;21.80;99.90
23156;DHT22;11746;50.876;4.246;2023-07-20T12:49:44;21.80;99.90
23156;DHT22;11746;50.876;4.246;2023-07-20T12:52:11;22.00;99.90
23156;DHT22;11746;50.876;4.246;2023-07-20T12:54:37;22.00;99.90
23156;DHT22;11746;50.876;4.246;2023-07-20T12:57:03;21.90;99.90
23156;DHT22;11746;50.876;4.246;2023-07-20T12:59:29;22.10;99.90
23156;DHT22;11746;50.876;4.246;2023-07-20T13:01:55;22.10;99.90
23156;DHT22;11746;50.876;4.246;2023-07-20T13:04:21;22.10;99.90
23156;DHT22;11746;50.876;4.246;2023-07-20T13:06:46;21.90;99.90
23156;DHT22;11746;50.876;4.246;2023-07-20T13:09:12;21.90;99.90
23156;DHT22;11746;50.876;4.246;2023-07-20T13:11:38;21.70;99.90
23156;DHT22;11746;50.876;4.246;2023-07-20T13:14:04;21.50;99.90
23156;DHT22;11746;50.876;4.246;2023-07-20T13:16:30;21.40;99.90
23156;DHT22;11746;50.876;4.246;2023-07-20T13:18:56;21.30;99.90
23156;DHT22;11746;50.876;4.246;2023-07-20T13:21:22;21.20;99.90
23156;DHT22;11746;50.876;4.246;2023-07-20T13:23:48;21.10;99.90
23156;DHT22;11746;50.876;4.246;2023-07-20T13:26:15;20.70;99.90
23156;DHT22;11746;50.876;4.246;2023-07-20T13:28:41;20.30;99.90
23156;DHT22;11746;50.876;4.246;2023-07-20T13:31:07;19.80;99.90
23156;DHT22;11746;50.876;4.246;2023-07-20T13:33:36;19.60;99.90
23156;DHT22;11746;50.876;4.246;2023-07-20T13:36:02;19.60;99.90
23156;DHT22;11746;50.876;4.246;2023-07-20T13:38:28;19.60;99.90
23156;DHT22;11746;50.876;4.246;2023-07-20T13:40:53;19.70;99.90
23156;DHT22;11746;50.876;4.246;2023-07-20T13:43:19;19.80;99.90
23156;DHT22;11746;50.876;4.246;2023-07-20T13:45:45;20.00;99.90
23156;DHT22;11746;50.876;4.246;2023-07-20T13:48:11;20.00;99.90
23156;DHT22;11746;50.876;4.246;2023-07-20T13:50:37;20.00;99.90
23156;DHT22;11746;50.876;4.246;2023-07-20T13:53:03;20.10;99.90
23156;DHT22;11746;50.876;4.246;2023-07-20T13:55:29;20.20;99.90
23156;DHT22;11746;50.876;4.246;2023-07-20T13:57:56;20.30;99.90
23156;DHT22;11746;50.876;4.246;2023-07-20T14:00:22;20.40;99.90
23156;DHT22;11746;50.876;4.246;2023-07-20T14:02:49;20.50;99.90
23156;DHT22;11746;50.876;4.246;2023-07-20T14:05:15;20.80;99.90
23156;DHT22;11746;50.876;4.246;2023-07-20T14:07:42;21.10;99.90
23156;DHT22;11746;50.876;4.246;2023-07-20T14:10:09;21.30;99.90
23156;DHT22;11746;50.876;4.246;2023-07-20T14:12:35;21.60;99.90
23156;DHT22;11746;50.876;4.246;2023-07-20T14:15:00;22.30;99.90
23156;DHT22;11746;50.876;4.246;2023-07-20T14:17:26;22.90;99.90
23156;DHT22;11746;50.876;4.246;2023-07-20T14:19:53;23.50;99.90
23156;DHT22;11746;50.876;4.246;2023-07-20T14:22:19;23.60;99.90
23156;DHT22;11746;50.876;4.246;2023-07-20T14:24:45;23.70;99.90
23156;DHT22;11746;50.876;4.246;2023-07-20T14:27:11;23.80;99.90
23156;DHT22;11746;50.876;4.246;2023-07-20T14:29:37;23.80;99.90
23156;DHT22;11746;50.876;4.246;2023-07-20T14:32:03;23.70;99.90
23156;DHT22;11746;50.876;4.246;2023-07-20T14:34:29;23.50;99.90
23156;DHT22;11746;50.876;4.246;2023-07-20T14:36:57;23.60;99.90
23156;DHT22;11746;50.876;4.246;2023-07-20T14:39:23;23.50;99.90
23156;DHT22;11746;50.876;4.246;2023-07-20T14:41:50;23.50;99.90
23156;DHT22;11746;50.876;4.246;2023-07-20T14:44:17;23.40;99.90
23156;DHT22;11746;50.876;4.246;2023-07-20T14:46:43;23.20;99.90
23156;DHT22;11746;50.876;4.246;2023-07-20T14:49:10;23.00;99.90
23156;DHT22;11746;50.876;4.246;2023-07-20T14:51:36;22.90;99.90
23156;DHT22;11746;50.876;4.246;2023-07-20T14:54:09;22.90;99.90
23156;DHT22;11746;50.876;4.246;2023-07-20T14:56:35;22.70;99.90
23156;DHT22;11746;50.876;4.246;2023-07-20T14:59:01;22.70;99.90
23156;DHT22;11746;50.876;4.246;2023-07-20T15:01:27;22.60;99.90
23156;DHT22;11746;50.876;4.246;2023-07-20T15:03:53;22.40;99.90
23156;DHT22;11746;50.876;4.246;2023-07-20T15:06:19;22.40;99.90
23156;DHT22;11746;50.876;4.246;2023-07-20T15:08:46;22.20;99.90
23156;DHT22;11746;50.876;4.246;2023-07-20T15:11:12;22.20;99.90
23156;DHT22;11746;50.876;4.246;2023-07-20T15:13:38;22.00;99.90
23156;DHT22;11746;50.876;4.246;2023-07-20T15:16:04;21.90;99.90
23156;DHT22;11746;50.876;4.246;2023-07-20T15:18:30;21.80;99.90
23156;DHT22;11746;50.876;4.246;2023-07-20T15:20:56;21.80;99.90
23156;DHT22;11746;50.876;4.246;2023-07-20T15:23:22;21.80;99.90
23156;DHT22;11746;50.876;4.246;2023-07-20T15:25:47;21.50;99.90
23156;DHT22;11746;50.876;4.246;2023-07-20T15:28:13;21.20;99.90
23156;DHT22;11746;50.876;4.246;2023-07-20T15:30:39;20.80;99.90
23156;DHT22;11746;50.876;4.246;2023-07-20T15:33:05;20.00;99.90
23156;DHT22;11746;50.876;4.246;2023-07-20T15:35:31;19.30;99.90
23156;DHT22;11746;50.876;4.246;2023-07-20T15:37:56;18.80;99.90
23156;DHT22;11746;50.876;4.246;2023-07-20T15:40:25;18.50;99.90
23156;DHT22;11746;50.876;4.246;2023-07-20T15:42:51;18.00;99.90
23156;DHT22;11746;50.876;4.246;2023-07-20T15:45:17;17.70;99.90
23156;DHT22;11746;50.876;4.246;2023-07-20T15:47:43;17.20;99.90